Time;durP1;ratioP1;P1;durP2;ratioP2;P2;SDS_P1;SDS_P2;PMS_P1;PMS_P2;Temp;Humidity;BMP_temperature;BMP_pressure;BME280_temperature;BME280_humidity;BME280_pressure;Samples;Min_cycle;Max_cycle;Signal;HPM_P1;HPM_P2
2022/06/07 00:01:37;;;;;;;;;2.00;2.00;;;;;17.02;72.83;101125.34;5100711;27;45330;-76
2022/06/07 00:04:04;;;;;;;;;3.00;3.00;;;;;17.03;72.83;101113.59;5115360;27;45340;-76
2022/06/07 00:06:30;;;;;;;;;2.33;2.33;;;;;17.00;73.07;101114.00;5081380;27;45319;-77
2022/06/07 00:08:56;;;;;;;;;3.33;3.33;;;;;17.06;73.04;101117.72;5114042;27;47056;-77
2022/06/07 00:11:21;;;;;;;;;3.00;3.00;;;;;17.08;72.75;101107.59;5081452;27;45408;-77
2022/06/07 00:13:49;;;;;;;;;4.00;4.00;;;;;17.07;73.47;101114.84;5081401;27;45279;-77
2022/06/07 00:16:16;;;;;;;;;4.00;4.00;;;;;17.12;73.53;101120.41;5081177;28;45252;-76
2022/06/07 00:18:42;;;;;;;;;3.67;3.67;;;;;17.06;73.04;101096.25;5079806;28;48010;-76
2022/06/07 00:21:08;;;;;;;;;3.00;3.00;;;;;17.15;73.50;101108.44;5081482;27;45337;-76
2022/06/07 00:23:34;;;;;;;;;5.00;5.00;;;;;17.19;73.27;101112.34;5079555;28;45421;-76
2022/06/07 00:26:00;;;;;;;;;5.33;4.33;;;;;17.17;73.32;101103.66;5080971;27;45549;-76
2022/06/07 00:28:27;;;;;;;;;3.67;3.67;;;;;17.18;73.33;101104.50;5080836;27;45366;-76
2022/06/07 00:30:53;;;;;;;;;3.00;3.00;;;;;17.17;73.94;101098.31;5081124;27;45334;-76
2022/06/07 00:33:21;;;;;;;;;4.00;4.00;;;;;17.19;73.80;101098.94;5081155;27;45224;-76
2022/06/07 00:35:46;;;;;;;;;4.00;4.00;;;;;17.20;74.00;101100.56;5079527;28;45960;-76
2022/06/07 00:38:12;;;;;;;;;4.00;4.00;;;;;17.11;74.12;101083.84;5080995;28;45618;-76
2022/06/07 00:40:39;;;;;;;;;3.33;3.00;;;;;17.15;73.96;101086.97;5080584;28;45328;-76
2022/06/07 00:43:05;;;;;;;;;6.00;4.67;;;;;17.19;74.26;101087.34;5080689;27;45409;-77
2022/06/07 00:45:31;;;;;;;;;4.00;3.00;;;;;17.15;74.46;101084.28;5079289;28;46114;-76
2022/06/07 00:47:56;;;;;;;;;4.33;4.00;;;;;17.09;74.21;101077.06;5079183;28;47185;-76
2022/06/07 00:50:53;;;;;;;;;3.00;3.00;;;;;17.22;74.67;101087.78;5080435;27;45302;-76
2022/06/07 00:53:28;;;;;;;;;4.33;4.33;;;;;17.24;74.48;101088.38;5113431;27;45342;-76
2022/06/07 00:55:54;;;;;;;;;2.33;2.33;;;;;17.25;74.45;101078.47;5096426;27;45408;-77
2022/06/07 00:58:21;;;;;;;;;3.00;3.00;;;;;17.21;74.45;101079.91;5079081;28;47792;-76
2022/06/07 01:00:47;;;;;;;;;3.33;3.33;;;;;17.18;74.71;101066.91;5080632;27;45345;-76
2022/06/07 01:03:13;;;;;;;;;4.00;4.00;;;;;17.23;74.83;101073.28;5113629;27;45424;-76
2022/06/07 01:05:38;;;;;;;;;4.00;2.67;;;;;17.24;75.21;101066.88;5096348;27;45331;-76
2022/06/07 01:10:51;;;;;;;;;4.00;4.00;;;;;17.24;75.42;101068.75;5100671;27;45722;-76
2022/06/07 01:13:20;;;;;;;;;5.00;5.00;;;;;17.24;75.05;101069.56;5099415;27;45354;-77
2022/06/07 01:15:46;;;;;;;;;3.00;3.00;;;;;17.23;75.13;101070.59;5100865;27;45428;-76
2022/06/07 01:18:13;;;;;;;;;3.00;3.00;;;;;17.20;75.15;101068.34;5100895;27;45569;-75
2022/06/07 01:20:39;;;;;;;;;2.00;2.00;;;;;17.23;75.34;101072.47;5100728;27;45395;-77
2022/06/07 01:23:05;;;;;;;;;2.00;2.00;;;;;17.23;75.51;101067.09;5100717;27;45333;-76
2022/06/07 01:25:30;;;;;;;;;2.67;2.67;;;;;17.19;75.64;101060.50;5100248;27;45545;-75
2022/06/07 01:27:56;;;;;;;;;5.00;4.00;;;;;17.18;75.54;101054.28;5099015;27;48533;-76
2022/06/07 01:30:21;;;;;;;;;2.00;2.00;;;;;17.18;74.94;101054.28;5099224;27;45432;-76
2022/06/07 01:32:47;;;;;;;;;2.00;2.00;;;;;17.17;75.54;101039.22;5100876;27;45925;-76
2022/06/07 01:35:12;;;;;;;;;3.67;3.67;;;;;17.24;75.71;101048.06;5100698;27;45325;-76
2022/06/07 01:37:37;;;;;;;;;4.00;3.67;;;;;17.29;75.83;101055.50;5100369;27;45320;-76
2022/06/07 01:42:49;;;;;;;;;3.00;3.00;;;;;17.26;75.95;101037.97;5100096;27;45350;-76
2022/06/07 01:45:14;;;;;;;;;3.00;3.00;;;;;17.25;75.82;101038.16;5100273;27;45252;-76
2022/06/07 01:47:40;;;;;;;;;4.00;4.00;;;;;17.24;75.73;101040.03;5100356;27;46017;-76
2022/06/07 01:50:06;;;;;;;;;3.33;3.33;;;;;17.23;76.04;101035.69;5099220;27;45271;-76
2022/06/07 01:52:33;;;;;;;;;3.00;3.00;;;;;17.22;75.78;101036.75;5100383;27;45280;-76
2022/06/07 01:55:00;;;;;;;;;3.33;3.33;;;;;17.27;75.89;101041.47;5099921;27;45383;-76
2022/06/07 01:57:26;;;;;;;;;3.00;3.00;;;;;17.24;76.33;101036.53;5099852;27;45991;-76
2022/06/07 01:59:51;;;;;;;;;2.00;2.00;;;;;17.24;75.92;101037.34;5100198;27;45746;-76
2022/06/07 02:02:17;;;;;;;;;5.00;4.33;;;;;17.33;76.18;101048.66;5099357;27;45374;-76
2022/06/07 02:04:44;;;;;;;;;3.00;3.00;;;;;17.36;75.91;101044.75;5090594;27;45816;-76
2022/06/07 02:07:12;;;;;;;;;3.00;3.00;;;;;17.31;76.43;101036.50;5078210;28;48446;-76
2022/06/07 02:09:37;;;;;;;;;3.67;3.00;;;;;17.32;76.52;101032.75;5079157;28;45333;-76
2022/06/07 02:12:04;;;;;;;;;3.00;2.67;;;;;17.26;76.51;101024.53;5079526;27;45345;-76
2022/06/07 02:14:30;;;;;;;;;4.00;3.00;;;;;17.32;76.38;101032.75;5079591;27;45313;-76
2022/06/07 02:16:56;;;;;;;;;3.00;3.00;;;;;17.36;76.61;101037.50;5079439;28;47441;-76
2022/06/07 02:19:22;;;;;;;;;4.00;4.00;;;;;17.37;76.68;101039.16;5078259;28;46133;-76
2022/06/07 02:21:47;;;;;;;;;3.00;2.33;;;;;17.33;76.20;101021.00;5078340;28;45382;-76
2022/06/07 02:24:13;;;;;;;;;3.00;3.00;;;;;17.34;77.01;101014.59;5079166;28;45480;-76
2022/06/07 02:26:43;;;;;;;;;3.00;3.00;;;;;17.40;76.32;101022.63;5077684;28;47025;-76
2022/06/07 02:29:17;;;;;;;;;2.67;2.67;;;;;17.35;76.25;101013.53;5077819;28;45615;-75
2022/06/07 02:31:49;;;;;;;;;3.67;3.33;;;;;17.38;76.83;101024.69;5078066;28;45491;-76
2022/06/07 02:34:17;;;;;;;;;2.67;2.00;;;;;17.33;76.41;101008.38;5079358;27;45280;-76
2022/06/07 02:36:47;;;;;;;;;2.00;2.00;;;;;17.31;76.50;101006.94;5079237;27;45408;-76
2022/06/07 02:39:12;;;;;;;;;4.00;4.00;;;;;17.33;76.27;101002.19;5077726;28;45241;-76
2022/06/07 02:41:40;;;;;;;;;3.00;3.00;;;;;17.37;76.39;101006.09;5079128;28;45367;-76
2022/06/07 02:44:06;;;;;;;;;3.00;3.00;;;;;17.33;76.65;101005.69;5079170;28;45362;-76
2022/06/07 02:46:31;;;;;;;;;3.33;3.33;;;;;17.38;76.62;101010.41;5078953;28;46193;-75
2022/06/07 02:48:57;;;;;;;;;3.00;3.00;;;;;17.32;76.93;100992.47;5079347;28;45504;-76
2022/06/07 02:51:22;;;;;;;;;3.00;2.00;;;;;17.32;77.44;100996.00;5079097;27;45324;-75
2022/06/07 02:53:48;;;;;;;;;3.00;3.00;;;;;17.36;77.43;100996.41;5077498;28;46008;-76
2022/06/07 02:56:13;;;;;;;;;2.00;2.00;;;;;17.40;76.85;100998.44;5079006;28;45376;-75
2022/06/07 02:58:38;;;;;;;;;4.00;4.00;;;;;17.34;76.98;100990.41;5079091;27;45365;-76
2022/06/07 03:01:04;;;;;;;;;2.33;2.33;;;;;17.34;77.41;100991.25;5079188;27;45338;-76
2022/06/07 03:03:29;;;;;;;;;2.67;2.33;;;;;17.36;77.43;100991.03;5077510;28;46037;-76
2022/06/07 03:05:54;;;;;;;;;3.67;3.33;;;;;17.32;77.35;100973.66;5096654;27;45372;-76
2022/06/07 03:08:21;;;;;;;;;3.00;3.00;;;;;17.37;77.52;100987.28;5114898;27;45577;-76
2022/06/07 03:10:47;;;;;;;;;1.67;1.67;;;;;17.29;77.10;100959.66;5099349;27;45376;-77
2022/06/07 03:13:13;;;;;;;;;3.00;3.00;;;;;17.44;77.45;100977.34;5098142;27;46387;-76
2022/06/07 03:15:40;;;;;;;;;2.00;2.00;;;;;17.47;77.11;100976.91;5101418;27;47664;-76
2022/06/07 03:18:06;;;;;;;;;5.00;5.00;;;;;17.42;77.49;100969.50;5102711;27;45356;-76
2022/06/07 03:20:32;;;;;;;;;3.67;3.33;;;;;17.48;76.89;100983.13;5102755;27;45284;-77
2022/06/07 03:22:57;;;;;;;;;3.00;1.33;;;;;17.44;77.02;100971.13;5102525;27;45412;-76
2022/06/07 03:25:24;;;;;;;;;3.00;3.00;;;;;17.46;77.22;100975.28;5102397;27;46119;-76
2022/06/07 03:27:50;;;;;;;;;3.00;3.00;;;;;17.53;77.02;100981.44;5135647;27;45338;-76
2022/06/07 03:30:16;;;;;;;;;4.00;3.00;;;;;17.57;77.54;100983.69;5102594;27;45363;-76
2022/06/07 03:32:42;;;;;;;;;3.33;3.33;;;;;17.59;76.90;100990.50;5118303;27;46046;-75
2022/06/07 03:35:09;;;;;;;;;2.00;2.00;;;;;17.60;76.98;100981.38;5102314;27;46146;-76
2022/06/07 03:37:34;;;;;;;;;4.33;4.00;;;;;17.61;76.79;100987.59;5102324;27;45231;-76
2022/06/07 03:40:00;;;;;;;;;4.00;3.00;;;;;17.52;77.09;100974.41;5102323;27;45358;-76
2022/06/07 03:42:25;;;;;;;;;1.33;1.33;;;;;17.60;77.28;100985.94;5102055;27;45283;-76
2022/06/07 03:44:50;;;;;;;;;3.00;3.00;;;;;17.55;77.25;100981.22;5101040;27;47588;-76
2022/06/07 03:47:19;;;;;;;;;3.33;3.33;;;;;17.54;77.59;100977.69;5102383;27;45326;-76
2022/06/07 03:49:46;;;;;;;;;4.00;4.00;;;;;17.52;77.55;100984.31;5102442;27;45468;-76
2022/06/07 03:52:12;;;;;;;;;2.67;2.67;;;;;17.51;77.13;100986.19;5102286;27;45299;-76
2022/06/07 03:54:38;;;;;;;;;2.67;2.67;;;;;17.45;77.81;100976.28;5101804;27;45348;-76
2022/06/07 03:57:04;;;;;;;;;3.00;3.00;;;;;17.46;77.88;100980.66;5100450;27;45320;-76
2022/06/07 03:59:30;;;;;;;;;2.67;2.67;;;;;17.41;77.63;100978.59;5100924;27;45323;-76
2022/06/07 04:01:55;;;;;;;;;3.33;3.33;;;;;17.32;78.04;100965.59;5102224;27;45275;-76
2022/06/07 04:04:21;;;;;;;;;3.00;3.00;;;;;17.39;77.42;100969.91;5095333;27;48088;-75
2022/06/07 04:09:39;;;;;;;;;2.33;2.33;;;;;17.45;78.78;100989.72;5081215;28;45904;-76
2022/06/07 04:12:07;;;;;;;;;3.00;3.00;;;;;17.39;78.57;100979.84;5079792;28;47011;-76
2022/06/07 04:14:32;;;;;;;;;2.33;2.33;;;;;17.38;78.69;100989.78;5081032;28;46211;-76
2022/06/07 04:16:57;;;;;;;;;4.00;4.00;;;;;17.30;78.96;100981.94;5081349;27;45385;-76
2022/06/07 04:19:22;;;;;;;;;2.67;2.67;;;;;17.23;78.66;100976.59;5081601;27;45302;-76
2022/06/07 04:21:48;;;;;;;;;4.00;4.00;;;;;17.27;79.50;100971.66;5081301;27;45356;-77
2022/06/07 04:24:14;;;;;;;;;3.67;3.67;;;;;17.20;79.07;100963.59;5079730;28;48122;-76
2022/06/07 04:26:39;;;;;;;;;3.33;3.33;;;;;17.28;78.81;100979.50;5080435;27;45386;-77
2022/06/07 04:29:05;;;;;;;;;5.00;5.00;;;;;17.31;79.63;100985.47;5096931;27;45339;-77
2022/06/07 04:31:30;;;;;;;;;5.33;5.33;;;;;17.28;79.49;100981.34;5081158;27;45328;-76
2022/06/07 04:33:57;;;;;;;;;3.67;3.00;;;;;17.31;79.23;100983.59;5079642;28;48123;-76
2022/06/07 04:36:24;;;;;;;;;3.33;3.33;;;;;17.26;79.95;100976.19;5081100;28;45298;-77
2022/06/07 04:38:52;;;;;;;;;3.33;3.33;;;;;17.34;79.64;100982.34;5080905;28;45468;-76
2022/06/07 04:41:19;;;;;;;;;4.00;4.00;;;;;17.35;79.92;100983.97;5080720;27;45335;-77
2022/06/07 04:43:46;;;;;;;;;4.00;4.00;;;;;17.36;80.12;100982.97;5080853;27;45397;-76
2022/06/07 04:46:16;;;;;;;;;4.67;3.67;;;;;17.37;80.30;100980.06;5081071;27;45383;-76
2022/06/07 04:48:43;;;;;;;;;4.00;4.00;;;;;17.38;80.18;100986.25;5080807;27;45290;-76
2022/06/07 04:51:16;;;;;;;;;4.33;4.33;;;;;17.39;80.55;100982.53;5080663;27;45382;-76
2022/06/07 04:53:42;;;;;;;;;6.00;5.00;;;;;17.42;80.26;100988.28;5078817;28;48267;-76
2022/06/07 04:56:14;;;;;;;;;4.00;4.00;;;;;17.38;81.19;100986.25;5079260;28;45452;-76
2022/06/07 04:58:40;;;;;;;;;8.33;6.67;;;;;17.37;80.90;100982.75;5080981;27;45347;-76
2022/06/07 05:01:10;;;;;;;;;5.33;5.33;;;;;17.42;80.90;100988.28;5080416;27;45284;-75
2022/06/07 05:03:36;;;;;;;;;5.67;5.67;;;;;17.41;81.26;100986.66;5080493;28;45295;-76
2022/06/07 05:06:01;;;;;;;;;6.00;4.00;;;;;17.35;82.01;100979.44;5099459;27;45345;-75
2022/06/07 05:08:26;;;;;;;;;6.67;6.67;;;;;17.42;82.63;100988.28;5100599;27;45362;-75
2022/06/07 05:10:53;;;;;;;;;6.00;6.00;;;;;17.40;82.59;100989.56;5100920;27;45459;-76
2022/06/07 05:13:19;;;;;;;;;7.00;6.00;;;;;17.44;82.92;100998.81;5099439;27;47306;-76
2022/06/07 05:15:53;;;;;;;;;7.67;6.67;;;;;17.44;83.12;100988.09;5099604;27;45775;-76
2022/06/07 05:18:18;;;;;;;;;6.67;5.67;;;;;17.46;82.72;100990.56;5099333;27;45352;-76
2022/06/07 05:20:44;;;;;;;;;7.33;6.00;;;;;17.46;83.38;100988.72;5100829;27;45374;-76
2022/06/07 05:23:09;;;;;;;;;6.33;6.00;;;;;17.47;83.65;100990.34;5100569;27;45274;-75
2022/06/07 05:25:35;;;;;;;;;6.33;6.33;;;;;17.37;83.39;100977.38;5100646;27;45318;-75
2022/06/07 05:28:00;;;;;;;;;6.33;6.33;;;;;17.51;84.37;100985.38;5099227;27;45310;-75
2022/06/07 05:30:25;;;;;;;;;7.33;6.67;;;;;17.46;84.43;100979.81;5100506;27;45472;-75
2022/06/07 05:32:51;;;;;;;;;5.00;5.00;;;;;17.55;84.02;100989.28;5099107;27;47163;-74
2022/06/07 05:35:16;;;;;;;;;6.67;6.67;;;;;17.53;84.46;100984.13;5100682;27;45739;-74
2022/06/07 05:37:42;;;;;;;;;8.33;7.67;;;;;17.60;84.80;100985.94;5099454;27;45277;-74
2022/06/07 05:40:09;;;;;;;;;5.33;5.33;;;;;17.48;84.28;100959.75;5100249;27;45412;-74
2022/06/07 05:42:34;;;;;;;;;5.33;5.33;;;;;17.63;84.34;100980.94;5099919;27;45369;-75
2022/06/07 05:45:00;;;;;;;;;7.67;6.33;;;;;17.71;84.59;100981.72;5133159;27;45341;-74
2022/06/07 05:47:26;;;;;;;;;5.33;5.33;;;;;17.77;84.59;100988.94;5100592;27;45375;-74
2022/06/07 05:49:51;;;;;;;;;5.33;5.33;;;;;17.74;84.94;100987.50;5100386;27;45328;-75
2022/06/07 05:52:19;;;;;;;;;4.00;4.00;;;;;17.74;84.76;100986.69;5100381;27;46242;-74
2022/06/07 05:54:44;;;;;;;;;5.33;5.00;;;;;17.77;85.00;100980.88;5098602;27;45409;-75
2022/06/07 05:57:10;;;;;;;;;4.00;4.00;;;;;17.81;85.17;100994.72;5100376;27;45410;-74
2022/06/07 05:59:36;;;;;;;;;5.00;5.00;;;;;17.76;84.78;100989.97;5100171;27;45322;-74
2022/06/07 06:02:01;;;;;;;;;5.67;4.67;;;;;17.74;85.63;100976.75;5100046;27;45807;-74
2022/06/07 06:04:26;;;;;;;;;6.67;5.67;;;;;17.68;85.07;100974.94;5093840;27;45145;-75
2022/06/07 06:06:56;;;;;;;;;5.00;5.00;;;;;17.73;84.28;100991.25;5079766;28;45212;-74
2022/06/07 06:12:06;;;;;;;;;5.00;4.00;;;;;17.63;85.50;100989.00;5078939;28;45370;-74
2022/06/07 06:14:31;;;;;;;;;6.00;5.33;;;;;17.58;85.41;100977.25;5079327;28;45287;-74
2022/06/07 06:16:56;;;;;;;;;5.67;5.67;;;;;17.58;85.47;100983.47;5079766;28;45298;-75
2022/06/07 06:19:22;;;;;;;;;4.00;4.00;;;;;17.56;86.12;100985.53;5078118;28;45613;-75
2022/06/07 06:21:48;;;;;;;;;7.67;7.00;;;;;17.65;85.88;100988.78;5079582;28;45467;-75
2022/06/07 06:24:17;;;;;;;;;6.67;6.33;;;;;17.66;85.93;100998.53;5079239;27;45334;-74
2022/06/07 06:26:42;;;;;;;;;7.00;5.67;;;;;17.61;86.03;100995.66;5079481;27;45483;-75
2022/06/07 06:29:08;;;;;;;;;6.33;5.00;;;;;17.60;85.85;100992.13;5078931;27;45449;-74
2022/06/07 06:31:35;;;;;;;;;4.67;4.67;;;;;17.64;86.62;101001.44;5079372;27;45557;-74
2022/06/07 06:34:01;;;;;;;;;7.00;7.00;;;;;17.63;86.17;100994.38;5079492;27;45298;-74
2022/06/07 06:36:27;;;;;;;;;4.67;4.67;;;;;17.73;85.99;101007.38;5079367;27;45345;-74
2022/06/07 06:38:53;;;;;;;;;6.67;6.00;;;;;17.75;86.06;101002.59;5078821;27;45500;-75
2022/06/07 06:41:25;;;;;;;;;7.00;7.00;;;;;17.71;85.96;100996.00;5079005;27;45969;-75
2022/06/07 06:43:51;;;;;;;;;6.00;6.00;;;;;17.78;85.48;101002.16;5077672;28;45358;-75
2022/06/07 06:46:20;;;;;;;;;4.67;4.67;;;;;17.84;85.60;101010.41;5079463;27;45333;-74
2022/06/07 06:48:46;;;;;;;;;5.67;4.33;;;;;17.78;85.66;100993.28;5080174;27;45291;-75
2022/06/07 06:51:15;;;;;;;;;5.00;5.00;;;;;17.87;85.62;101001.91;5082578;28;46191;-76
2022/06/07 06:53:41;;;;;;;;;5.00;5.00;;;;;17.83;85.60;100984.53;5098154;27;45929;-76
2022/06/07 06:56:08;;;;;;;;;5.00;5.00;;;;;17.86;85.38;101002.94;5115775;27;45381;-76
2022/06/07 06:58:33;;;;;;;;;6.67;5.33;;;;;17.92;85.49;101002.06;5082677;28;45318;-75
2022/06/07 07:01:06;;;;;;;;;6.67;6.67;;;;;17.91;85.29;101006.66;5081970;28;45248;-76
2022/06/07 07:03:33;;;;;;;;;5.67;5.00;;;;;17.88;85.02;101012.44;5081259;28;45493;-75
2022/06/07 07:06:00;;;;;;;;;5.33;4.67;;;;;17.93;85.55;101019.88;5101233;27;45303;-76
2022/06/07 07:08:25;;;;;;;;;6.33;6.33;;;;;17.87;85.11;101009.97;5101176;27;47107;-74
2022/06/07 07:11:12;;;;;;;;;3.33;3.33;;;;;17.92;86.00;101015.50;5100396;27;48484;-74
2022/06/07 07:13:39;;;;;;;;;5.00;5.00;;;;;17.86;86.45;101002.94;5082675;27;45445;-74
2022/06/07 07:16:10;;;;;;;;;5.33;5.33;;;;;17.89;85.55;101000.66;5081054;28;45383;-75
2022/06/07 07:18:36;;;;;;;;;6.33;6.00;;;;;17.90;86.45;100999.59;5080940;28;46392;-75
2022/06/07 07:21:06;;;;;;;;;4.67;4.33;;;;;18.07;86.43;101014.41;5078045;28;45927;-75
2022/06/07 07:23:33;;;;;;;;;4.33;4.33;;;;;18.15;86.42;101019.53;5077393;28;45614;-74
2022/06/07 07:26:06;;;;;;;;;4.67;4.67;;;;;18.22;86.33;101012.22;5081993;27;45199;-75
2022/06/07 07:28:33;;;;;;;;;5.67;5.67;;;;;18.37;86.53;101016.44;5080031;28;47298;-75
2022/06/07 07:31:01;;;;;;;;;2.67;2.67;;;;;18.48;85.76;101023.00;5082069;27;45241;-74
2022/06/07 07:33:27;;;;;;;;;6.00;4.00;;;;;18.58;84.97;101020.63;5080974;27;45342;-75
2022/06/07 07:35:52;;;;;;;;;3.33;3.33;;;;;18.42;84.79;100987.03;5080649;28;45271;-74
2022/06/07 07:38:19;;;;;;;;;4.00;4.00;;;;;18.74;84.16;101018.41;5081505;27;45504;-75
2022/06/07 07:40:44;;;;;;;;;4.00;3.67;;;;;18.78;83.46;101020.44;5081641;28;45406;-74
2022/06/07 07:43:10;;;;;;;;;2.67;2.67;;;;;18.86;83.01;101021.19;5114560;27;45428;-75
2022/06/07 07:45:36;;;;;;;;;1.67;1.67;;;;;18.92;82.80;101023.81;5080570;28;45452;-75
2022/06/07 07:48:02;;;;;;;;;3.00;2.00;;;;;18.99;82.98;101021.06;5081535;27;45423;-75
2022/06/07 07:50:27;;;;;;;;;1.00;1.00;;;;;19.10;82.18;101021.38;5081694;28;45268;-75
2022/06/07 07:52:52;;;;;;;;;2.67;2.67;;;;;19.17;81.47;101031.03;5081595;28;45279;-76
2022/06/07 07:55:18;;;;;;;;;2.33;2.33;;;;;19.16;81.56;101029.38;5081687;27;45314;-75
2022/06/07 07:57:43;;;;;;;;;3.00;2.00;;;;;19.23;81.13;101023.94;5079083;28;47125;-75
2022/06/07 08:00:10;;;;;;;;;1.00;1.00;;;;;19.23;79.95;101028.47;5095130;27;48362;-76
2022/06/07 08:02:35;;;;;;;;;2.00;2.00;;;;;19.21;78.36;101025.22;5081568;27;45388;-75
2022/06/07 08:05:00;;;;;;;;;2.33;2.33;;;;;19.25;78.22;101021.81;5078832;27;45593;-75
2022/06/07 08:07:27;;;;;;;;;2.00;2.00;;;;;19.29;78.67;101033.81;5083025;27;45531;-76
2022/06/07 08:09:52;;;;;;;;;0.33;0.33;;;;;19.26;78.60;101017.25;5085457;28;45342;-76
2022/06/07 08:12:17;;;;;;;;;2.00;2.00;;;;;19.35;78.41;101028.53;5080366;27;45413;-78
2022/06/07 08:14:43;;;;;;;;;3.00;3.00;;;;;19.41;78.47;101038.44;5081681;27;45429;-75
2022/06/07 08:17:08;;;;;;;;;2.67;1.67;;;;;19.40;77.68;101023.31;5081304;27;45379;-77
2022/06/07 08:19:34;;;;;;;;;2.00;2.00;;;;;19.42;77.06;101040.06;5079975;28;48005;-75
2022/06/07 08:21:59;;;;;;;;;2.33;2.00;;;;;19.21;77.45;101000.97;5081562;27;45463;-77
2022/06/07 08:24:24;;;;;;;;;0.33;0.33;;;;;19.29;77.54;101031.13;5079857;28;45399;-78
2022/06/07 08:26:52;;;;;;;;;1.00;0.00;;;;;19.25;75.97;101037.97;5081395;27;45375;-76
2022/06/07 08:29:19;;;;;;;;;0.00;0.00;;;;;19.23;75.54;101039.25;5081387;27;45347;-75
2022/06/07 08:31:45;;;;;;;;;0.00;0.00;;;;;19.14;76.63;101030.66;5081244;27;45330;-76
2022/06/07 08:39:43;;;;;;;;;0.33;0.33;;;;;19.26;74.66;101033.41;5060526;28;45505;-75
2022/06/07 08:42:26;;;;;;;;;0.67;0.67;;;;;19.23;75.97;101039.25;5060625;28;45310;-76
2022/06/07 08:45:00;;;;;;;;;0.67;0.67;;;;;19.25;74.98;101029.09;5072054;28;45224;-76
2022/06/07 08:47:39;;;;;;;;;0.00;0.00;;;;;19.30;75.21;101026.53;5080915;27;45510;-76
2022/06/07 08:50:19;;;;;;;;;1.33;1.33;;;;;19.34;75.45;101030.44;5080718;28;45403;-76
2022/06/07 08:52:47;;;;;;;;;1.00;1.00;;;;;19.37;75.50;101023.75;5080819;27;45338;-75
2022/06/07 08:55:24;;;;;;;;;0.00;0.00;;;;;19.38;75.82;101020.00;5079345;28;45375;-76
2022/06/07 08:58:10;;;;;;;;;2.67;1.67;;;;;19.52;74.46;101026.88;5080559;27;45410;-76
2022/06/07 09:00:40;;;;;;;;;1.33;1.33;;;;;19.60;75.54;101022.22;5080045;28;45432;-76
2022/06/07 09:03:23;;;;;;;;;1.00;1.00;;;;;19.77;74.80;101028.63;5080535;28;45366;-77
2022/06/07 09:05:54;;;;;;;;;1.00;1.00;;;;;19.87;74.35;101011.06;5097766;27;45562;-75
2022/06/07 09:08:20;;;;;;;;;3.00;2.67;;;;;19.98;74.36;101014.84;5100531;27;45510;-76
2022/06/07 09:13:35;;;;;;;;;2.00;2.00;;;;;20.10;73.12;101018.41;5080095;28;45374;-76
2022/06/07 09:16:01;;;;;;;;;1.00;1.00;;;;;20.23;72.69;101030.06;5080472;27;45446;-77
2022/06/07 09:18:29;;;;;;;;;2.00;1.33;;;;;20.31;72.46;101017.06;5080021;28;45339;-76
2022/06/07 09:20:59;;;;;;;;;2.33;2.33;;;;;20.50;72.04;101024.22;5096079;27;46701;-76
2022/06/07 09:23:31;;;;;;;;;2.00;2.00;;;;;20.56;72.04;101023.25;5079913;27;45316;-76
2022/06/07 09:26:37;;;;;;;;;2.00;2.00;;;;;20.59;71.38;101013.91;5080368;27;45328;-76
2022/06/07 09:29:12;;;;;;;;;1.00;1.00;;;;;20.56;71.41;101021.41;5079020;28;45335;-76
2022/06/07 09:31:41;;;;;;;;;2.00;1.33;;;;;20.53;70.54;101011.06;5078541;28;48068;-76
2022/06/07 09:34:14;;;;;;;;;1.33;1.33;;;;;20.50;70.25;101022.31;5095781;27;45246;-76
2022/06/07 09:36:43;;;;;;;;;2.00;1.67;;;;;20.52;70.96;101014.81;5080202;27;45308;-76
2022/06/07 09:39:16;;;;;;;;;3.00;3.00;;;;;20.53;70.55;101011.06;5079622;27;45451;-76
2022/06/07 09:41:48;;;;;;;;;2.50;2.50;;;;;20.67;70.69;101021.63;5079561;27;45396;-76
2022/06/07 09:44:25;;;;;;;;;3.33;3.00;;;;;20.76;70.05;101016.69;5079618;27;45314;-76
2022/06/07 09:46:50;;;;;;;;;2.00;2.00;;;;;20.93;69.91;101014.97;5079621;27;45405;-75
2022/06/07 09:49:44;;;;;;;;;1.00;0.00;;;;;21.11;66.31;101015.84;5078846;28;46339;-78
2022/06/07 09:52:21;;;;;;;;;2.00;1.00;;;;;21.27;66.75;101003.47;5053148;28;46005;-75
2022/06/07 09:54:48;;;;;;;;;0.33;0.33;;;;;21.41;64.83;101003.19;5059895;28;45319;-76
2022/06/07 09:57:14;;;;;;;;;1.00;1.00;;;;;21.46;63.23;101000.56;5060249;28;45342;-78
2022/06/07 09:59:56;;;;;;;;;0.00;0.00;;;;;21.51;61.23;101008.78;5060264;28;45394;-75
2022/06/07 10:02:46;;;;;;;;;0.00;0.00;;;;;21.57;62.02;101009.69;5059689;28;45230;-78
2022/06/07 10:05:21;;;;;;;;;0.00;0.00;;;;;21.54;62.84;101013.72;5074656;27;45384;-76
2022/06/07 10:07:57;;;;;;;;;0.00;0.00;;;;;21.56;62.47;101008.91;5078847;28;45385;-78
2022/06/07 10:10:34;;;;;;;;;1.00;1.00;;;;;21.64;63.25;101002.25;5081011;28;45390;-77
2022/06/07 10:13:13;;;;;;;;;2.00;0.67;;;;;21.82;62.40;100997.75;5078083;28;48162;-77
2022/06/07 10:15:48;;;;;;;;;2.00;2.00;;;;;21.93;63.11;100994.13;5079905;27;45387;-78
2022/06/07 10:18:29;;;;;;;;;0.67;0.67;;;;;22.07;61.76;101002.78;5078493;28;45436;-77
2022/06/07 10:20:57;;;;;;;;;0.00;0.00;;;;;22.25;62.16;100991.94;5081628;27;45581;-77
2022/06/07 10:24:02;;;;;;;;;0.33;0.33;;;;;22.33;61.82;100997.75;5078684;27;45424;-78
2022/06/07 10:26:46;;;;;;;;;0.33;0.33;;;;;22.39;60.10;100997.81;5079611;27;45462;-76
2022/06/07 10:29:18;;;;;;;;;0.00;0.00;;;;;22.36;59.76;100995.63;5074745;27;45860;-76
2022/06/07 10:31:54;;;;;;;;;1.00;1.00;;;;;22.34;61.11;100998.56;5079353;28;45296;-76
2022/06/07 10:34:44;;;;;;;;;1.67;1.67;;;;;22.45;60.71;100997.66;5079414;28;46437;-76
2022/06/07 10:37:40;;;;;;;;;0.00;0.00;;;;;22.63;58.78;100998.47;5078095;28;45381;-76
2022/06/07 10:40:18;;;;;;;;;1.00;1.00;;;;;22.63;58.41;100992.25;5077655;28;45427;-76
2022/06/07 10:42:46;;;;;;;;;1.33;1.33;;;;;22.53;56.35;100991.00;5078257;27;45463;-77
2022/06/07 10:45:22;;;;;;;;;2.67;2.67;;;;;22.39;58.50;100981.59;5075361;28;47377;-76
2022/06/07 10:48:18;;;;;;;;;0.67;0.67;;;;;22.29;57.86;100984.94;5079222;28;45390;-76
2022/06/07 10:51:01;;;;;;;;;1.00;1.00;;;;;22.14;57.83;100980.09;5077776;28;45417;-76
2022/06/07 10:53:40;;;;;;;;;0.00;0.00;;;;;22.14;58.27;100985.53;5078456;28;45466;-76
2022/06/07 10:56:14;;;;;;;;;1.00;1.00;;;;;22.16;58.51;100994.22;5077659;28;48511;-76
2022/06/07 10:58:45;;;;;;;;;0.00;0.00;;;;;22.31;57.92;100989.06;5078957;27;45325;-76
2022/06/07 11:01:37;;;;;;;;;0.00;0.00;;;;;22.44;56.23;100973.53;5078011;28;45252;-77
2022/06/07 11:10:01;;;;;;;;;1.00;1.00;;;;;22.49;56.20;100981.72;5099184;27;45313;-75
2022/06/07 11:12:39;;;;;;;;;2.00;2.00;;;;;22.39;56.86;100971.56;5075691;27;45445;-75
2022/06/07 11:15:19;;;;;;;;;9.33;7.67;;;;;22.36;56.57;100953.13;5078436;27;45733;-76
2022/06/07 11:17:55;;;;;;;;;3.67;3.67;;;;;22.71;57.61;100975.53;5078512;27;46141;-76
2022/06/07 11:20:27;;;;;;;;;0.00;0.00;;;;;22.91;54.26;100982.31;5078332;27;45341;-76
2022/06/07 11:23:02;;;;;;;;;0.00;0.00;;;;;22.86;54.37;100972.22;5075417;27;45424;-75
2022/06/07 11:25:38;;;;;;;;;0.00;0.00;;;;;22.75;55.16;100965.88;5077314;28;46237;-76
2022/06/07 11:28:33;;;;;;;;;1.00;0.00;;;;;22.68;56.55;100990.41;5074386;27;48279;-76
2022/06/07 11:31:21;;;;;;;;;0.00;0.00;;;;;22.55;57.05;100988.03;5078967;27;45346;-76
2022/06/07 11:33:53;;;;;;;;;1.00;0.00;;;;;22.36;56.13;100984.78;5077385;28;45426;-76
2022/06/07 11:36:28;;;;;;;;;0.00;0.00;;;;;22.30;56.19;100986.59;5080341;27;45348;-76
2022/06/07 11:38:54;;;;;;;;;2.33;2.33;;;;;22.26;56.51;100986.25;5081536;27;45759;-76
2022/06/07 11:41:53;;;;;;;;;0.00;0.00;;;;;22.26;56.58;100990.84;5080670;28;45694;-76
2022/06/07 11:44:28;;;;;;;;;2.00;2.00;;;;;22.17;56.57;100974.22;5077385;28;45802;-75
2022/06/07 11:46:59;;;;;;;;;2.00;2.00;;;;;22.22;56.82;100987.84;5082023;27;45354;-77
2022/06/07 11:49:25;;;;;;;;;1.33;1.00;;;;;22.16;56.80;100978.00;5076900;28;47216;-76
2022/06/07 11:51:56;;;;;;;;;1.33;0.00;;;;;22.12;57.79;100974.94;5068584;28;45315;-75
2022/06/07 11:54:30;;;;;;;;;1.00;0.00;;;;;22.13;57.79;100973.91;5076529;28;45366;-76
2022/06/07 11:57:00;;;;;;;;;0.00;0.00;;;;;22.21;57.25;100961.84;5070654;28;45403;-76
2022/06/07 11:59:43;;;;;;;;;0.00;0.00;;;;;22.29;57.84;100961.41;5074382;27;46685;-77